Terminal Aerodrome Forecast
Issued by NWS

Home | Current Version | Previous Version | Text Only | Print | Product List | Glossary On
Versions: 1 2 3 4 5 6 7 8 9 10 11 12 13 14
023
FTUS46 KSGX 261125
TAFONT
TAF
KONT 261125Z 2612/2718 09007KT P6SM SKC WS010/07020KT
      TEMPO 2614/2617 08012G20KT P6SM SKC
     FM261700 04012G20KT P6SM SKC
     FM262100 27010KT P6SM SCT150
     FM270300 VRB06KT P6SM SCT100 SCT150
     FM270900 VRB05KT P6SM BKN100=

USA.gov is the U.S. government's official web portal to all federal, state and local government web resources and services.